Shiro, Texas
Current Conditions -  °F | °C
As of 11:53 PM on Wednesday 28 Jan 2015 (Local Time) from KUTS Reporting Station
Clear Clear  
Wind Chill: 58°   Ceiling: Unl
Heat Index: 58°   Visibility: 10mi
Dew Point: 51°   Wind: 10mph
Humidity: 78%   Direction: 190°S
Pressure: 30.15"   Gusts: NA
Location:  30.61°N, 95.89°W
Report Text: KUTS 290553Z AUTO 19009KT 10SM CLR 14/11 A3015 RMK AO2 SLP205 T01440106 10217 20144 402610106 53011
Loading
Personal Weather Stations






























Interactive Weather Map New forecast layout! Learn more

10-Day Weather Forecast

Advertisements
Track Severe Weather on mobile